Latest Weather Observations for Ayr

IDQ60801

Issued at 4:32 pm EST Thursday 19 January 2017 (issued every 30 minutes, with the page automatically refreshed every 10 minutes)

About weather observations | Map of weather stations | Latest weather observations for QLD | Other Formats
Station Details ID: 033002 Name: AYR DPI RESEARCH STN Lat: -19.62 Lon: 147.38 Height: 17.0 m
Data from the previous 72 hours. | See also: Recent months at Ayr
Date/Time
EST
Temp
°C
App
Temp
°C
Dew
Point
°C
Rel
Hum
%
Delta-T
°C
Wind Press
QNH
hPa
Press
MSL
hPa
Rain since
9am
mm
Dir  Spd
km/h
Gust
km/h
Spd
kts
Gust
kts
19/04:30pm 31.5 32.3 19.8 49 7.7 NNE 15 22 8 12 - - 0.0
19/04:00pm 31.8 33.5 21.6 54 6.9 NNE 15 24 8 13 - - 0.0
19/03:30pm 32.1 33.2 20.4 50 7.8 NNE 15 24 8 13 - - 0.0
19/03:00pm 32.4 33.3 20.0 48 8.2 NNE 15 22 8 12 - - 0.0
19/02:30pm 32.7 35.8 22.2 54 7.2 NE 9 17 5 9 - - 0.0
19/02:00pm 32.4 35.7 21.9 54 7.1 NNE 7 17 4 9 - - 0.0
19/01:30pm 32.8 34.3 18.9 43 9.1 ENE 9 17 5 9 - - 0.0
19/01:00pm 32.3 34.2 18.5 44 9.0 SSE 6 15 3 8 - - 0.0
19/12:30pm 31.7 33.7 18.7 46 8.4 N 6 15 3 8 - - 0.0
19/12:00pm 31.4 32.8 18.7 46 8.2 NNE 9 13 5 7 - - 0.0
19/11:30am 31.4 33.7 19.4 49 7.9 S 6 9 3 5 - - 0.0
19/11:00am 30.8 33.5 19.5 51 7.4 W 4 9 2 5 - - 0.0
19/10:30am 30.9 34.3 20.2 53 7.1 S 2 7 1 4 - - 0.0
19/10:00am 29.9 33.0 21.0 59 5.9 N 6 11 3 6 - - 0.0
19/09:30am 29.5 33.4 21.2 61 5.5 SW 2 9 1 5 - - 0.0
19/09:00am 29.1 32.6 21.8 64 4.9 S 6 9 3 5 - - 0.0
19/08:30am 28.0 32.0 22.0 70 4.0 SW 4 9 2 5 - - 0.0
19/08:00am 27.6 31.7 23.0 76 3.1 S 6 9 3 5 - - 0.0
19/07:30am 26.7 30.8 23.0 80 2.5 S 6 7 3 4 - - 0.0
19/07:00am 25.1 29.0 22.6 86 1.7 S 6 7 3 4 - - 0.0
19/06:30am 24.2 29.2 22.5 90 1.1 CALM 0 0 0 0 - - 0.0
19/06:00am 23.1 25.7 21.2 89 1.2 SSW 9 11 5 6 - - 0.0
19/05:30am 23.0 27.2 20.9 88 1.4 CALM 0 0 0 0 - - 0.0
19/05:00am 23.2 27.1 21.1 88 1.4 S 2 7 1 4 - - 0.0
19/04:30am 23.3 27.5 21.0 87 1.5 CALM 0 0 0 0 - - 0.0
19/04:00am 23.6 28.0 21.3 87 1.5 CALM 0 0 0 0 - - 0.0
19/03:30am 23.8 28.2 21.3 86 1.6 CALM 0 0 0 0 - - 0.0
19/03:00am 24.1 28.6 21.6 86 1.7 CALM 0 0 0 0 - - 0.0
19/02:30am 24.3 29.0 22.0 87 1.5 CALM 0 0 0 0 - - 0.0
19/02:00am 24.4 29.1 21.9 86 1.7 CALM 0 0 0 0 - - 0.0
19/01:30am 24.6 29.3 21.9 85 1.8 CALM 0 0 0 0 - - 0.0
19/01:00am 24.9 29.7 22.2 85 1.8 CALM 0 0 0 0 - - 0.0
19/12:30am 25.1 30.0 22.4 85 1.8 CALM 0 0 0 0 - - 0.0
19/12:00am 25.2 29.5 22.7 86 1.7 S 4 6 2 3 - - 0.0
 
Date/Time
EST
Temp
°C
App
Temp
°C
Dew
Point
°C
Rel
Hum
%
Delta-T
°C
Wind Press
QNH
hPa
Press
MSL
hPa
Rain since
9am
mm
Dir  Spd
km/h
Gust
km/h
Spd
kts
Gust
kts
18/11:30pm 25.3 30.2 22.4 84 1.9 CALM 0 0 0 0 - - 0.0
18/11:00pm 25.7 30.9 22.8 84 2.0 CALM 0 0 0 0 - - 0.0
18/10:30pm 25.8 30.5 22.7 83 2.1 NNE 2 6 1 3 - - 0.0
18/10:00pm 25.8 30.5 22.7 83 2.1 NNE 2 7 1 4 - - 0.0
18/09:30pm 25.8 30.4 22.5 82 2.2 NE 2 6 1 3 - - 0.0
18/09:00pm 25.9 29.6 22.6 82 2.2 ENE 7 9 4 5 - - 0.0
18/08:30pm 26.0 30.0 22.7 82 2.2 NE 6 9 3 5 - - 0.0
18/08:00pm 26.4 30.7 22.7 80 2.5 ENE 4 7 2 4 - - 0.0
18/07:30pm 26.6 30.7 22.9 80 2.5 NNE 6 7 3 4 - - 0.0
18/07:00pm 27.2 30.8 22.4 75 3.2 NE 7 11 4 6 - - 0.0
18/06:30pm 28.2 30.8 22.0 69 4.2 NNE 11 15 6 8 - - 0.0
18/06:00pm 29.1 30.9 21.8 64 4.9 NE 15 19 8 10 - - 0.0
18/05:30pm 29.9 31.4 21.3 60 5.8 NE 15 19 8 10 - - 0.0
18/05:00pm 30.4 32.8 22.3 62 5.5 NE 13 20 7 11 - - 0.0
18/04:30pm 30.7 32.5 21.2 57 6.4 ENE 13 22 7 12 - - 0.0
18/04:00pm 31.0 32.5 21.2 56 6.6 ENE 15 24 8 13 - - 0.0
18/03:30pm 31.5 33.4 21.4 55 6.8 ENE 13 20 7 11 - - 0.0
18/03:00pm 30.9 32.2 20.8 55 6.7 ENE 15 22 8 12 - - 0.0
18/02:30pm 31.4 33.3 22.1 57 6.3 ENE 15 22 8 12 - - 0.0
18/02:00pm 31.2 32.7 20.5 53 7.1 ENE 13 20 7 11 - - 0.0
18/01:30pm 31.2 32.5 20.8 54 6.9 ENE 15 24 8 13 - - 0.0
18/01:00pm 31.6 34.3 21.4 54 6.9 E 9 15 5 8 - - 0.0
18/12:30pm 31.0 33.1 20.9 55 6.7 E 11 17 6 9 - - 0.0
18/12:00pm 31.3 34.4 21.5 56 6.6 ENE 7 13 4 7 - - 0.0
18/11:30am 30.7 32.8 20.9 56 6.5 NE 11 19 6 10 - - 0.0
18/11:00am 30.6 32.4 21.1 57 6.4 E 13 19 7 10 - - 0.0
18/10:30am 30.2 32.5 20.7 56 6.3 E 9 17 5 9 - - 0.0
18/10:00am 29.8 32.6 21.5 61 5.6 E 9 17 5 9 - - 0.0
18/09:30am 29.4 31.7 21.4 62 5.4 ESE 11 19 6 10 - - 0.0
18/09:00am 28.7 31.2 21.7 66 4.7 SE 11 19 6 10 - - 7.4
18/08:30am 28.1 30.4 22.1 70 4.0 SE 13 19 7 10 - - 7.4
18/08:00am 27.3 30.1 21.6 71 3.8 SSE 9 13 5 7 - - 7.4
18/07:30am 26.2 29.5 21.8 77 2.9 SSE 7 11 4 6 - - 7.4
18/07:00am 25.3 29.3 22.0 82 2.2 S 4 9 2 5 - - 7.4
18/06:30am 23.9 27.0 21.4 86 1.6 SSW 7 7 4 4 - - 7.4
18/06:00am 23.3 25.8 21.0 87 1.5 S 9 13 5 7 - - 7.4
18/05:30am 23.2 25.7 21.1 88 1.4 SSW 9 11 5 6 - - 7.4
18/05:00am 23.1 26.1 20.8 87 1.5 S 6 7 3 4 - - 7.4
18/04:30am 23.2 26.2 20.9 87 1.5 S 6 9 3 5 - - 7.4
18/04:00am 23.2 26.2 20.9 87 1.5 S 6 7 3 4 - - 7.4
18/03:30am 23.4 26.8 20.9 86 1.6 S 4 7 2 4 - - 7.4
18/03:00am 23.7 26.7 21.2 86 1.6 SSE 7 9 4 5 - - 7.4
18/02:30am 24.1 27.4 21.4 85 1.8 SE 6 9 3 5 - - 7.4
18/02:00am 24.3 28.3 21.4 84 1.9 SSE 2 6 1 3 - - 7.4
18/01:30am 24.6 29.2 21.7 84 1.9 CALM 0 0 0 0 - - 7.4
18/01:00am 24.8 27.9 21.5 82 2.2 SSE 7 9 4 5 - - 7.4
18/12:30am 25.9 29.4 22.2 80 2.5 E 7 11 4 6 - - 7.4
18/12:00am 25.6 29.1 22.1 81 2.3 ESE 7 11 4 6 - - 7.4
 
Date/Time
EST
Temp
°C
App
Temp
°C
Dew
Point
°C
Rel
Hum
%
Delta-T
°C
Wind Press
QNH
hPa
Press
MSL
hPa
Rain since
9am
mm
Dir  Spd
km/h
Gust
km/h
Spd
kts
Gust
kts
17/11:30pm 25.9 29.5 22.4 81 2.4 ESE 7 11 4 6 - - 7.4
17/11:00pm 26.3 30.1 22.8 81 2.4 E 7 9 4 5 - - 7.4
17/10:30pm 25.8 31.1 23.1 85 1.8 CALM 0 0 0 0 - - 7.4
17/10:00pm 25.8 31.1 23.1 85 1.8 CALM 0 0 0 0 - - 7.4
17/09:30pm 25.8 30.3 22.9 84 2.0 SW 4 6 2 3 - - 7.4
17/09:00pm 26.1 31.5 23.2 84 2.0 CALM 0 0 0 0 - - 7.4
17/08:30pm 26.3 31.6 23.0 82 2.2 CALM 0 0 0 0 - - 7.4
17/08:00pm 26.3 31.5 22.8 81 2.4 CALM 0 0 0 0 - - 7.4
17/07:30pm 26.4 31.4 22.5 79 2.6 CALM 0 0 0 0 - - 7.4
17/07:00pm 26.8 30.2 22.0 75 3.2 NE 7 11 4 6 - - 7.4
17/06:30pm 27.3 30.1 22.3 74 3.4 ENE 11 19 6 10 - - 7.4
17/06:00pm 27.6 30.0 22.3 73 3.6 NE 13 19 7 10 - - 7.4
17/05:30pm 28.3 29.5 20.6 63 5.1 E 15 20 8 11 - - 7.4
17/05:00pm 28.4 28.9 20.9 64 5.0 ENE 19 28 10 15 - - 7.4
17/04:30pm 28.5 29.7 22.5 70 4.1 E 20 28 11 15 - - 7.4
17/04:00pm 29.2 30.8 22.2 66 4.7 ENE 17 28 9 15 - - 7.4
17/03:30pm 29.7 30.9 22.2 64 5.1 ENE 19 32 10 17 - - 7.4
17/03:00pm 28.8 29.8 22.1 67 4.5 E 20 28 11 15 - - 7.4
17/02:30pm 29.2 30.3 22.4 66 4.6 E 20 32 11 17 - - 7.4
17/02:00pm 29.8 30.6 22.5 65 5.0 ENE 22 30 12 16 - - 7.4
17/01:30pm 29.8 31.9 23.7 70 4.2 E 19 28 10 15 - - 7.4
17/01:00pm 29.6 31.2 23.3 69 4.3 ENE 20 33 11 18 - - 7.4
17/12:30pm 28.8 30.2 22.8 70 4.1 E 20 30 11 16 - - 7.4
17/12:00pm 28.2 29.9 23.1 74 3.5 E 19 28 10 15 - - 7.4
17/11:30am 27.5 31.1 23.7 80 2.6 E 11 24 6 13 - - 7.4
17/11:00am 26.5 28.3 23.2 82 2.2 N 19 24 10 13 - - 6.2
17/10:30am 27.6 31.0 23.4 78 2.9 E 11 19 6 10 - - 5.6
17/10:00am 26.2 30.2 23.1 83 2.1 NE 7 9 4 5 - - 5.6
17/09:30am 25.6 28.2 22.7 84 2.0 E 13 20 7 11 - - 2.2
17/09:00am 26.2 29.0 22.3 79 2.6 ENE 11 17 6 9 - - 0.2
17/08:30am 27.3 30.4 22.9 77 3.0 ENE 11 15 6 8 - - 0.2
17/08:00am 27.8 32.3 24.0 80 2.6 SE 7 15 4 8 - - 0.2
17/07:30am 26.4 31.1 22.7 80 2.5 NW 2 7 1 4 - - 0.2
17/07:00am 25.9 29.8 23.0 84 2.0 SE 7 13 4 7 - - 0.2
17/06:30am 24.7 28.4 22.6 88 1.4 SE 7 11 4 6 - - 0.2
17/06:00am 24.5 27.7 22.4 88 1.4 S 9 13 5 7 - - 0.2
17/05:30am 24.5 28.3 22.4 88 1.4 SSE 6 9 3 5 - - 0.2
17/05:00am 24.3 27.7 22.0 87 1.5 SSE 7 9 4 5 - - 0.2
17/04:30am 24.5 29.0 22.2 87 1.5 S 2 7 1 4 - - 0.2
17/04:00am 24.6 29.4 22.1 86 1.7 CALM 0 2 0 1 - - 0.2
17/03:30am 24.7 28.8 22.2 86 1.7 SE 4 7 2 4 - - 0.2
17/03:00am 24.9 28.6 22.2 85 1.8 ESE 6 9 3 5 - - 0.2
17/02:30am 25.2 29.0 22.7 86 1.7 ESE 7 9 4 5 - - 0.2
17/02:00am 24.9 28.8 22.6 87 1.5 E 6 7 3 4 - - 0.2
17/01:30am 24.9 29.6 22.6 87 1.5 NE 2 7 1 4 - - 0.2
17/01:00am 24.9 29.8 22.4 86 1.7 CALM 0 7 0 4 - - 0.2
17/12:30am 25.0 29.2 22.5 86 1.7 NE 4 6 2 3 - - 0.2
17/12:00am 25.2 29.9 22.7 86 1.7 ENE 2 7 1 4 - - 0.2
 
Date/Time
EST
Temp
°C
App
Temp
°C
Dew
Point
°C
Rel
Hum
%
Delta-T
°C
Wind Press
QNH
hPa
Press
MSL
hPa
Rain since
9am
mm
Dir  Spd
km/h
Gust
km/h
Spd
kts
Gust
kts
16/11:30pm 25.4 29.7 22.7 85 1.8 ENE 4 6 2 3 - - 0.2
16/11:00pm 25.7 29.6 23.0 85 1.8 ENE 7 11 4 6 - - 0.2
16/10:30pm 25.6 29.6 23.1 86 1.7 ENE 7 9 4 5 - - 0.2
16/10:00pm 25.7 29.8 23.2 86 1.7 ENE 7 9 4 5 - - 0.2
16/09:30pm 25.8 29.8 23.1 85 1.8 NE 7 9 4 5 - - 0.2
16/09:00pm 25.8 29.8 23.1 85 1.8 NE 7 11 4 6 - - 0.2
16/08:30pm 26.0 30.2 23.1 84 2.0 ENE 6 9 3 5 - - 0.2
16/08:00pm 26.2 30.1 22.9 82 2.2 ENE 7 13 4 7 - - 0.2
16/07:30pm 26.2 29.6 22.7 81 2.4 NE 9 13 5 7 - - 0.2
16/07:00pm 26.9 30.6 23.2 80 2.5 NE 9 17 5 9 - - 0.2
16/06:30pm 27.3 31.3 23.7 81 2.5 ENE 9 15 5 8 - - 0.2
16/06:00pm 28.1 30.6 23.2 74 3.4 E 15 24 8 13 - - 0.2
16/05:30pm 29.3 31.6 22.8 68 4.4 NE 15 24 8 13 - - 0.2
16/05:00pm 29.4 31.6 22.6 67 4.6 ENE 15 24 8 13 - - 0.2

Other Formats:

Comma delimited format used in spreadsheet applications
http://www.bom.gov.au/fwo/IDQ60801/IDQ60801.95295.axf

JavaScript Object Notation format (JSON) in row-major order
http://www.bom.gov.au/fwo/IDQ60801/IDQ60801.95295.json